createdAt,value
2022-10-17T00:01:21.965Z,15.95
2022-10-17T00:03:50.090Z,15.97
2022-10-17T00:06:18.126Z,16.02
2022-10-17T00:08:46.544Z,16.01
2022-10-17T00:11:18.744Z,15.97
2022-10-17T00:13:49.653Z,15.91
2022-10-17T00:16:29.601Z,15.93
2022-10-17T00:18:59.850Z,16.02
2022-10-17T00:21:27.881Z,16.07
2022-10-17T00:23:55.863Z,16.05
2022-10-17T00:26:24.456Z,15.97
2022-10-17T00:28:53.353Z,15.83
2022-10-17T00:31:23.990Z,15.74
2022-10-17T00:33:52.910Z,15.64
2022-10-17T00:36:25.022Z,15.57
2022-10-17T00:38:58.696Z,15.54
2022-10-17T00:41:33.503Z,15.50
2022-10-17T00:44:29.680Z,15.47
2022-10-17T00:46:58.475Z,15.44
2022-10-17T00:49:28.957Z,15.41
2022-10-17T00:52:00.884Z,15.35
2022-10-17T00:54:36.060Z,15.31
2022-10-17T00:57:04.653Z,15.30
2022-10-17T00:59:36.173Z,15.40
2022-10-17T01:02:10.144Z,15.39
2022-10-17T01:04:40.600Z,15.31
2022-10-17T01:07:09.398Z,15.31
2022-10-17T01:09:38.257Z,15.73
2022-10-17T01:12:06.202Z,16.41
2022-10-17T01:14:48.185Z,16.84
2022-10-17T01:17:30.122Z,17.65
2022-10-17T01:20:06.088Z,18.24
2022-10-17T01:23:12.828Z,18.44
2022-10-17T01:25:41.158Z,18.45
2022-10-17T01:28:55.766Z,18.44
2022-10-17T01:31:54.220Z,18.30
2022-10-17T01:34:39.857Z,18.32
2022-10-17T01:37:31.696Z,18.70
2022-10-17T01:39:59.648Z,19.34
2022-10-17T01:42:37.910Z,19.32
2022-10-17T01:45:25.812Z,18.42
2022-10-17T01:47:57.683Z,17.51
2022-10-17T01:50:34.173Z,17.16
2022-10-17T01:53:11.871Z,17.68
2022-10-17T01:55:45.322Z,17.82
2022-10-17T01:58:19.856Z,17.93
2022-10-17T02:00:49.813Z,18.37
2022-10-17T02:03:21.186Z,18.44
2022-10-17T02:05:49.546Z,18.44
2022-10-17T02:08:56.010Z,18.50
2022-10-17T02:11:28.165Z,17.59
2022-10-17T02:14:19.074Z,16.86
2022-10-17T02:16:52.935Z,16.66
2022-10-17T02:19:58.046Z,17.54
2022-10-17T02:22:43.342Z,18.25
2022-10-17T02:25:18.227Z,18.63
2022-10-17T02:28:21.150Z,18.59
2022-10-17T02:30:58.529Z,17.63
2022-10-17T02:33:35.665Z,16.88
2022-10-17T02:36:09.762Z,16.48
2022-10-17T02:38:39.447Z,17.06
2022-10-17T02:41:12.792Z,17.79
2022-10-17T02:43:43.521Z,18.29
2022-10-17T02:46:21.320Z,18.70
2022-10-17T02:48:59.707Z,18.88
2022-10-17T02:51:41.986Z,18.77
2022-10-17T02:54:19.071Z,17.89
2022-10-17T02:57:20.788Z,17.05
2022-10-17T02:59:50.343Z,16.57
2022-10-17T03:02:18.577Z,17.02
2022-10-17T03:04:47.855Z,17.96
2022-10-17T03:07:17.111Z,18.41
2022-10-17T03:09:45.162Z,17.77
2022-10-17T03:12:13.318Z,16.96
2022-10-17T03:14:42.142Z,16.59
2022-10-17T03:17:10.119Z,17.33
2022-10-17T03:19:38.127Z,17.96
2022-10-17T03:22:06.315Z,18.10
2022-10-17T03:24:35.358Z,18.32
2022-10-17T03:27:03.939Z,18.39
2022-10-17T03:29:32.067Z,17.70
2022-10-17T03:32:00.127Z,16.90
2022-10-17T03:34:28.208Z,16.26
2022-10-17T03:36:56.520Z,16.06
2022-10-17T03:39:25.046Z,16.62
2022-10-17T03:41:53.272Z,17.19
2022-10-17T03:44:21.600Z,17.51
2022-10-17T03:46:49.918Z,17.74
2022-10-17T03:49:17.931Z,17.85
2022-10-17T03:51:46.025Z,17.90
2022-10-17T03:54:15.902Z,18.00
2022-10-17T03:56:44.037Z,18.27
2022-10-17T03:59:15.912Z,17.74
2022-10-17T04:01:48.789Z,16.92
2022-10-17T04:04:18.501Z,16.25
2022-10-17T04:06:46.463Z,15.98
2022-10-17T04:09:15.266Z,16.62
2022-10-17T04:11:50.020Z,17.24
2022-10-17T04:14:18.359Z,17.62
2022-10-17T04:16:46.891Z,17.71
2022-10-17T04:19:18.418Z,17.64
2022-10-17T04:21:47.864Z,17.64
2022-10-17T04:24:16.747Z,17.98
2022-10-17T04:26:51.036Z,17.88
2022-10-17T04:29:19.413Z,17.12
2022-10-17T04:31:50.060Z,16.39
2022-10-17T04:34:21.689Z,15.88
2022-10-17T04:36:51.949Z,15.67
2022-10-17T04:39:20.396Z,15.43
2022-10-17T04:41:48.632Z,15.24
2022-10-17T04:44:16.796Z,15.00
2022-10-17T04:46:49.117Z,14.93
2022-10-17T04:49:17.167Z,14.83
2022-10-17T04:51:47.260Z,14.70
2022-10-17T04:54:26.183Z,14.53
2022-10-17T04:56:59.903Z,14.37
2022-10-17T04:59:29.211Z,14.28
2022-10-17T05:02:06.438Z,14.50
2022-10-17T05:04:34.751Z,14.41
2022-10-17T05:07:03.646Z,14.19
2022-10-17T05:09:43.113Z,14.17
2022-10-17T05:12:11.543Z,14.22
2022-10-17T05:14:41.876Z,14.14
2022-10-17T05:17:11.076Z,13.97
2022-10-17T05:19:40.025Z,13.83
2022-10-17T05:22:09.585Z,13.78
2022-10-17T05:24:39.053Z,13.81
2022-10-17T05:27:08.115Z,13.83
2022-10-17T05:29:36.675Z,13.74
2022-10-17T05:32:11.246Z,13.67
2022-10-17T05:34:39.531Z,13.94
2022-10-17T05:37:07.735Z,14.16
2022-10-17T05:39:36.309Z,14.03
2022-10-17T05:42:05.136Z,13.95
2022-10-17T05:44:34.445Z,13.97
2022-10-17T05:47:02.773Z,14.00
2022-10-17T05:49:43.550Z,13.95
2022-10-17T05:52:14.982Z,14.03
2022-10-17T05:55:05.117Z,14.09
2022-10-17T05:57:33.199Z,14.07
2022-10-17T06:00:01.839Z,13.93
2022-10-17T06:02:46.201Z,13.90
2022-10-17T06:05:16.438Z,13.91
2022-10-17T06:07:44.833Z,14.13
2022-10-17T06:10:16.516Z,14.34
2022-10-17T06:12:45.767Z,14.47
2022-10-17T06:15:13.886Z,14.45
2022-10-17T06:17:45.291Z,14.35
2022-10-17T06:20:14.176Z,14.39
2022-10-17T06:22:43.604Z,14.51
2022-10-17T06:25:16.955Z,14.59
2022-10-17T06:27:47.343Z,14.62
2022-10-17T06:30:15.656Z,14.71
2022-10-17T06:32:44.464Z,14.76
2022-10-17T06:35:13.081Z,14.79
2022-10-17T06:37:42.197Z,14.88
2022-10-17T06:40:13.342Z,14.99
2022-10-17T06:42:41.733Z,15.12
2022-10-17T06:45:26.112Z,15.27
2022-10-17T06:48:15.909Z,15.43
2022-10-17T06:50:46.667Z,15.48
2022-10-17T06:53:22.170Z,15.50
2022-10-17T06:56:10.466Z,15.51
2022-10-17T06:59:10.011Z,15.46
2022-10-17T07:01:43.096Z,15.49
2022-10-17T07:04:15.929Z,15.53
2022-10-17T07:06:44.817Z,15.71
2022-10-17T07:09:17.700Z,15.96
2022-10-17T07:11:47.884Z,16.10
2022-10-17T07:14:19.831Z,16.13
2022-10-17T07:16:50.306Z,16.13
2022-10-17T07:19:25.665Z,16.15
2022-10-17T07:21:55.068Z,16.28
2022-10-17T07:24:24.164Z,16.43
2022-10-17T07:27:05.524Z,16.58
2022-10-17T07:29:34.649Z,17.04
2022-10-17T07:32:09.625Z,17.81
2022-10-17T07:34:39.488Z,18.58
2022-10-17T07:37:11.010Z,18.99
2022-10-17T07:39:42.475Z,19.38
2022-10-17T07:42:12.111Z,19.72
2022-10-17T07:44:40.586Z,20.00
2022-10-17T07:47:08.991Z,20.27
2022-10-17T07:49:42.809Z,20.68
2022-10-17T07:52:12.800Z,21.16
2022-10-17T07:54:41.729Z,21.55
2022-10-17T07:57:10.449Z,21.78
2022-10-17T07:59:40.397Z,21.88
2022-10-17T08:02:32.207Z,22.31
2022-10-17T08:05:00.581Z,22.64
2022-10-17T08:07:30.734Z,22.13
2022-10-17T08:09:59.000Z,21.54
2022-10-17T08:12:27.629Z,21.10
2022-10-17T08:14:56.148Z,20.75
2022-10-17T08:17:26.369Z,20.68
2022-10-17T08:19:54.558Z,21.26
2022-10-17T08:22:23.049Z,21.68
2022-10-17T08:24:51.219Z,22.08
2022-10-17T08:27:24.252Z,22.28
2022-10-17T08:29:53.674Z,22.32
2022-10-17T08:32:28.625Z,22.29
2022-10-17T08:34:58.152Z,22.44
2022-10-17T08:37:27.101Z,22.82
2022-10-17T08:39:56.242Z,23.02
2022-10-17T08:42:41.146Z,22.62
2022-10-17T08:45:56.085Z,22.11
2022-10-17T08:48:26.331Z,21.66
2022-10-17T08:51:02.831Z,21.62
2022-10-17T08:53:39.097Z,22.13
2022-10-17T08:56:47.663Z,22.49
2022-10-17T08:59:20.530Z,23.04
2022-10-17T09:02:05.055Z,23.25
2022-10-17T09:04:53.047Z,22.87
2022-10-17T09:07:59.639Z,22.45
2022-10-17T09:10:37.292Z,22.13
2022-10-17T09:13:14.913Z,21.95
2022-10-17T09:15:50.726Z,21.81
2022-10-17T09:18:36.758Z,22.03
2022-10-17T09:21:18.686Z,22.75
2022-10-17T09:24:09.033Z,23.41
2022-10-17T09:26:41.145Z,23.88
2022-10-17T09:29:23.041Z,23.56
2022-10-17T09:32:05.342Z,23.16
2022-10-17T09:34:33.851Z,22.90
2022-10-17T09:37:03.152Z,22.75
2022-10-17T09:39:33.095Z,22.64
2022-10-17T09:42:03.939Z,22.58
2022-10-17T09:44:34.146Z,22.54
2022-10-17T09:47:24.290Z,22.51
2022-10-17T09:49:53.236Z,22.48
2022-10-17T09:52:41.222Z,22.46
2022-10-17T09:55:20.613Z,22.47
2022-10-17T09:58:00.781Z,22.49
2022-10-17T10:00:38.470Z,22.51
2022-10-17T10:03:13.759Z,22.52
2022-10-17T10:05:44.245Z,22.53
2022-10-17T10:08:19.204Z,22.57
2022-10-17T10:10:58.740Z,22.61
2022-10-17T10:13:27.705Z,22.64
2022-10-17T10:16:15.159Z,22.68
2022-10-17T10:18:45.471Z,22.72
2022-10-17T10:21:20.416Z,22.77
2022-10-17T10:24:10.292Z,22.80
2022-10-17T10:26:46.077Z,22.85
2022-10-17T10:29:27.110Z,22.91
2022-10-17T10:31:56.095Z,22.97
2022-10-17T10:34:30.493Z,23.00
2022-10-17T10:37:17.130Z,23.04
2022-10-17T10:39:52.179Z,23.08
2022-10-17T10:42:31.275Z,23.12
2022-10-17T10:48:36.837Z,23.23
2022-10-17T10:51:19.743Z,23.28
2022-10-17T10:54:14.367Z,23.32
2022-10-17T10:56:49.786Z,23.37
2022-10-17T10:59:33.425Z,23.44
2022-10-17T11:02:31.592Z,23.49
2022-10-17T11:05:07.113Z,23.58
2022-10-17T11:07:41.416Z,23.65
2022-10-17T11:10:19.331Z,23.73
2022-10-17T11:13:05.358Z,23.82
2022-10-17T11:15:51.716Z,23.93
2022-10-17T11:18:39.707Z,24.04
2022-10-17T11:21:16.708Z,24.14
2022-10-17T11:23:48.785Z,24.21
2022-10-17T11:26:26.978Z,24.28
2022-10-17T11:29:02.182Z,24.34
2022-10-17T11:31:53.473Z,24.40
2022-10-17T11:34:27.249Z,24.46
2022-10-17T11:37:04.805Z,24.50
2022-10-17T11:39:49.436Z,24.55
2022-10-17T11:42:24.869Z,24.59
2022-10-17T11:45:00.904Z,24.64
2022-10-17T11:47:40.009Z,24.66
2022-10-17T11:53:19.267Z,24.70
2022-10-17T11:55:51.171Z,24.72
2022-10-17T11:58:25.531Z,24.74
2022-10-17T12:01:06.116Z,24.78
2022-10-17T12:04:12.852Z,24.83
2022-10-17T12:07:04.994Z,24.90
2022-10-17T12:09:45.500Z,24.95
2022-10-17T12:12:31.639Z,24.98
2022-10-17T12:15:23.570Z,25.04
2022-10-17T12:18:03.349Z,25.08
2022-10-17T12:20:36.866Z,25.12
2022-10-17T12:23:11.008Z,25.15
2022-10-17T12:25:52.884Z,25.17
2022-10-17T12:32:15.593Z,25.21
2022-10-17T12:34:54.421Z,25.20
2022-10-17T12:37:57.382Z,25.21
2022-10-17T12:40:36.903Z,25.22
2022-10-17T12:43:13.805Z,25.23
2022-10-17T12:45:51.820Z,25.23
2022-10-17T12:48:35.246Z,25.24
2022-10-17T12:54:12.512Z,25.22
2022-10-17T12:56:49.011Z,25.21
2022-10-17T12:59:23.825Z,25.20
2022-10-17T13:02:00.192Z,25.21
2022-10-17T13:04:32.109Z,25.21
2022-10-17T13:07:01.541Z,25.22
2022-10-17T13:09:39.458Z,25.23
2022-10-17T13:12:18.604Z,25.24
2022-10-17T13:14:48.193Z,25.24
2022-10-17T13:17:24.155Z,25.23
2022-10-17T13:19:53.338Z,25.21
2022-10-17T13:22:25.122Z,25.20
2022-10-17T13:25:08.762Z,25.17
2022-10-17T13:27:37.945Z,25.15
2022-10-17T13:30:34.116Z,25.14
2022-10-17T13:33:03.500Z,25.13
2022-10-17T13:35:59.034Z,25.10
2022-10-17T13:38:29.193Z,25.08
2022-10-17T13:41:10.833Z,25.06
2022-10-17T13:43:46.561Z,25.03
2022-10-17T13:46:37.265Z,24.99
2022-10-17T13:49:32.357Z,24.97
2022-10-17T13:52:02.362Z,24.92
2022-10-17T13:54:45.469Z,24.87
2022-10-17T13:57:21.757Z,24.83
2022-10-17T13:59:57.325Z,24.79
2022-10-17T14:02:28.454Z,24.75
2022-10-17T14:05:16.724Z,24.70
2022-10-17T14:08:15.071Z,24.65
2022-10-17T14:10:45.127Z,24.60
2022-10-17T14:13:25.919Z,24.57
2022-10-17T14:15:56.914Z,24.52
2022-10-17T14:18:34.868Z,24.48
2022-10-17T14:24:14.155Z,24.36
2022-10-17T14:27:28.314Z,24.30
2022-10-17T14:30:03.944Z,24.22
2022-10-17T14:32:35.042Z,24.15
2022-10-17T14:35:30.297Z,24.09
2022-10-17T14:37:59.162Z,24.01
2022-10-17T14:40:30.027Z,23.92
2022-10-17T14:43:04.174Z,23.83
2022-10-17T14:45:38.416Z,23.74
2022-10-17T14:48:15.646Z,23.65
2022-10-17T14:51:12.105Z,23.56
2022-10-17T14:53:43.190Z,23.46
2022-10-17T14:56:26.821Z,23.39
2022-10-17T14:58:56.129Z,23.29
2022-10-17T15:01:24.750Z,23.22
2022-10-17T15:03:54.348Z,23.13
2022-10-17T15:06:28.471Z,23.05
2022-10-17T15:08:57.928Z,22.96
2022-10-17T15:11:27.066Z,22.88
2022-10-17T15:13:55.647Z,22.77
2022-10-17T15:16:27.714Z,22.67
2022-10-17T15:18:56.433Z,22.58
2022-10-17T15:21:38.409Z,22.50
2022-10-17T15:24:15.108Z,22.41
2022-10-17T15:26:46.137Z,22.31
2022-10-17T15:29:16.338Z,22.22
2022-10-17T15:31:44.715Z,22.10
2022-10-17T15:34:14.237Z,21.99
2022-10-17T15:36:50.020Z,21.87
2022-10-17T15:39:18.211Z,21.75
2022-10-17T15:41:48.286Z,21.63
2022-10-17T15:44:17.202Z,21.51
2022-10-17T15:46:45.586Z,21.39
2022-10-17T15:49:17.705Z,21.28
2022-10-17T15:51:50.331Z,21.15
2022-10-17T15:54:20.149Z,21.03
2022-10-17T15:56:56.221Z,20.91
2022-10-17T15:59:32.547Z,20.80
2022-10-17T16:02:02.473Z,20.70
2022-10-17T16:04:32.877Z,20.59
2022-10-17T16:07:03.066Z,20.49
2022-10-17T16:09:32.803Z,20.40
2022-10-17T16:12:03.058Z,20.32
2022-10-17T16:14:35.784Z,20.22
2022-10-17T16:17:07.970Z,20.13
2022-10-17T16:19:43.895Z,20.04
2022-10-17T16:22:29.238Z,19.93
2022-10-17T16:25:09.207Z,19.83
2022-10-17T16:27:39.948Z,19.72
2022-10-17T16:30:13.480Z,19.61
2022-10-17T16:32:48.043Z,19.50
2022-10-17T16:35:30.638Z,19.40
2022-10-17T16:38:03.790Z,19.29
2022-10-17T16:40:41.473Z,19.24
2022-10-17T16:43:16.414Z,19.82
2022-10-17T16:45:54.709Z,20.43
2022-10-17T16:48:29.804Z,20.45
2022-10-17T16:51:05.910Z,20.40
2022-10-17T16:53:47.112Z,20.35
2022-10-17T16:56:24.067Z,20.56
2022-10-17T16:58:54.621Z,20.60
2022-10-17T17:01:26.852Z,20.67
2022-10-17T17:04:03.171Z,20.61
2022-10-17T17:06:38.030Z,20.22
2022-10-17T17:09:11.646Z,19.86
2022-10-17T17:11:44.793Z,19.52
2022-10-17T17:14:14.094Z,19.25
2022-10-17T17:16:43.898Z,19.03
2022-10-17T17:19:17.631Z,18.83
2022-10-17T17:21:52.493Z,18.72
2022-10-17T17:24:23.499Z,19.03
2022-10-17T17:26:55.139Z,19.21
2022-10-17T17:29:25.450Z,19.14
2022-10-17T17:31:54.191Z,19.04
2022-10-17T17:34:25.205Z,19.21
2022-10-17T17:36:55.623Z,19.38
2022-10-17T17:39:24.973Z,19.42
2022-10-17T17:41:57.288Z,19.42
2022-10-17T17:44:29.527Z,19.47
2022-10-17T17:46:58.235Z,19.50
2022-10-17T17:49:29.163Z,19.48
2022-10-17T17:52:06.178Z,19.46
2022-10-17T17:54:45.017Z,19.65
2022-10-17T17:57:19.125Z,19.64
2022-10-17T17:59:50.258Z,19.51
2022-10-17T18:02:25.626Z,19.40
2022-10-17T18:04:59.792Z,19.28
2022-10-17T18:07:31.048Z,19.22
2022-10-17T18:10:00.621Z,19.06
2022-10-17T18:12:32.799Z,18.83
2022-10-17T18:15:04.945Z,18.58
2022-10-17T18:17:37.382Z,18.38
2022-10-17T18:20:09.524Z,18.33
2022-10-17T18:22:39.455Z,18.32
2022-10-17T18:25:10.257Z,18.17
2022-10-17T18:27:41.057Z,18.02
2022-10-17T18:30:11.382Z,17.89
2022-10-17T18:32:40.910Z,17.79
2022-10-17T18:35:10.422Z,17.66
2022-10-17T18:37:39.312Z,17.53
2022-10-17T18:40:09.217Z,17.40
2022-10-17T18:42:38.905Z,17.31
2022-10-17T18:45:12.543Z,17.22
2022-10-17T18:47:47.516Z,17.11
2022-10-17T18:50:16.587Z,16.98
2022-10-17T18:52:49.686Z,16.88
2022-10-17T18:55:21.008Z,16.79
2022-10-17T18:57:51.173Z,16.70
2022-10-17T19:00:20.780Z,16.64
2022-10-17T19:02:49.867Z,16.57
2022-10-17T19:05:18.545Z,16.50
2022-10-17T19:07:47.664Z,16.45
2022-10-17T19:10:17.832Z,16.40
2022-10-17T19:12:48.050Z,16.35
2022-10-17T19:15:22.512Z,16.32
2022-10-17T19:18:02.525Z,16.29
2022-10-17T19:20:33.872Z,16.25
2022-10-17T19:23:03.389Z,16.26
2022-10-17T19:25:34.814Z,16.22
2022-10-17T19:28:03.414Z,16.17
2022-10-17T19:30:34.254Z,16.13
2022-10-17T19:33:03.860Z,16.18
2022-10-17T19:35:39.654Z,16.25
2022-10-17T19:38:14.252Z,16.27
2022-10-17T19:40:44.199Z,16.28
2022-10-17T19:43:15.451Z,16.26
2022-10-17T19:45:45.612Z,16.26
2022-10-17T19:48:15.025Z,16.28
2022-10-17T19:50:45.041Z,16.50
2022-10-17T19:53:14.154Z,16.90
2022-10-17T19:55:43.483Z,17.20
2022-10-17T19:58:12.464Z,17.43
2022-10-17T20:00:57.202Z,17.60
2022-10-17T20:03:26.140Z,17.73
2022-10-17T20:05:55.216Z,17.81
2022-10-17T20:08:23.478Z,17.88
2022-10-17T20:10:52.352Z,17.96
2022-10-17T20:13:21.854Z,17.99
2022-10-17T20:15:57.813Z,17.99
2022-10-17T20:18:27.198Z,18.01
2022-10-17T20:20:55.915Z,18.14
2022-10-17T20:23:24.150Z,18.27
2022-10-17T20:26:08.690Z,18.34
2022-10-17T20:28:50.485Z,18.43
2022-10-17T20:31:20.027Z,18.51
2022-10-17T20:33:48.342Z,18.50
2022-10-17T20:36:17.053Z,18.56
2022-10-17T20:38:45.370Z,18.56
2022-10-17T20:41:13.709Z,18.52
2022-10-17T20:43:42.472Z,18.41
2022-10-17T20:46:29.520Z,18.23
2022-10-17T20:49:07.471Z,18.07
2022-10-17T20:51:36.603Z,18.07
2022-10-17T20:54:05.568Z,18.12
2022-10-17T20:56:35.256Z,18.18
2022-10-17T20:59:07.902Z,18.22
2022-10-17T21:01:36.606Z,18.27
2022-10-17T21:06:53.956Z,18.35
2022-10-17T21:09:22.610Z,18.38
2022-10-17T21:11:55.338Z,18.38
2022-10-17T21:14:25.217Z,18.35
2022-10-17T21:16:53.494Z,18.30
2022-10-17T21:19:22.055Z,18.24
2022-10-17T21:21:50.795Z,18.20
2022-10-17T21:24:20.902Z,18.17
2022-10-17T21:26:55.616Z,18.14
2022-10-17T21:29:24.660Z,18.10
2022-10-17T21:31:53.052Z,18.06
2022-10-17T21:34:24.781Z,17.98
2022-10-17T21:36:54.495Z,17.92
2022-10-17T21:39:25.236Z,17.89
2022-10-17T21:41:54.410Z,17.85
2022-10-17T21:44:26.655Z,17.82
2022-10-17T21:46:56.215Z,17.78
2022-10-17T21:49:25.787Z,17.73
2022-10-17T21:51:54.340Z,17.68
2022-10-17T21:54:23.643Z,17.62
2022-10-17T21:56:53.125Z,17.56
2022-10-17T21:59:21.618Z,17.50
2022-10-17T22:01:50.022Z,17.45
2022-10-17T22:04:20.211Z,17.42
2022-10-17T22:06:53.452Z,17.36
2022-10-17T22:09:25.091Z,17.32
2022-10-17T22:11:56.615Z,17.29
2022-10-17T22:14:27.917Z,17.25
2022-10-17T22:16:56.860Z,17.20
2022-10-17T22:19:27.558Z,17.17
2022-10-17T22:21:56.540Z,17.13
2022-10-17T22:24:25.608Z,17.10
2022-10-17T22:26:58.152Z,17.05
2022-10-17T22:29:28.133Z,17.00
2022-10-17T22:31:56.224Z,16.95
2022-10-17T22:34:24.568Z,16.94
2022-10-17T22:36:53.175Z,16.93
2022-10-17T22:39:21.915Z,16.94
2022-10-17T22:41:50.122Z,17.00
2022-10-17T22:44:18.161Z,17.06
2022-10-17T22:46:46.138Z,17.05
2022-10-17T22:49:14.311Z,17.05
2022-10-17T22:51:43.397Z,17.13
2022-10-17T22:54:11.893Z,17.20
2022-10-17T22:56:40.307Z,17.16
2022-10-17T22:59:08.549Z,17.17
2022-10-17T23:01:36.611Z,17.18
2022-10-17T23:04:04.751Z,17.12
2022-10-17T23:06:32.765Z,17.09
2022-10-17T23:09:00.775Z,17.14
2022-10-17T23:11:29.392Z,17.20
2022-10-17T23:13:57.614Z,17.26
2022-10-17T23:16:25.682Z,17.30
2022-10-17T23:18:54.450Z,17.30
2022-10-17T23:21:23.048Z,17.23
2022-10-17T23:23:51.060Z,17.10
2022-10-17T23:26:19.019Z,17.09
2022-10-17T23:28:47.247Z,17.04
2022-10-17T23:31:18.368Z,16.92
2022-10-17T23:33:48.275Z,16.80
2022-10-17T23:36:18.640Z,16.70
2022-10-17T23:38:48.062Z,16.60
2022-10-17T23:41:17.109Z,16.55
2022-10-17T23:43:45.279Z,16.56
2022-10-17T23:46:13.574Z,16.63
2022-10-17T23:48:41.961Z,16.72
2022-10-17T23:51:10.849Z,16.76
2022-10-17T23:53:40.039Z,16.74
2022-10-17T23:56:10.274Z,16.72
2022-10-17T23:58:39.627Z,16.69
